Flight Track Log - Related Links

Times and Time Zones

All times are in EDT time to prevent confusion due to time zone crossing. See the EJA658 flight status page for this flight to view local times or setup timezone preferences in your user account.

Time Position Orientation Groundspeed Altitude Reporting Facility
EDT Latitude Longitude Course Direction KTS MPH feet Rate Location/Type
Sat 01:48:18 PM 41.0833 -73.7500 288° West 181 208 2,800  Level New York TRACON
Sat 01:49:18 PM 41.1000 -73.8167 288° West 199 229 6,800 3,450 Climbing New York TRACON
Sat 01:50:18 PM 41.1500 -73.8000 14° North 296 341 9,700 1,571 Climbing New York TRACON
Sat 01:51:24 PM 41.2167 -73.7000 48° Northeast 321 369 10,100 238 Climbing New York TRACON
Sat 01:52:24 PM 41.2667 -73.6167 51° Northeast 309 356 10,200 50 Climbing New York TRACON
Sat 01:53:24 PM 41.3167 -73.5333 51° Northeast 306 352 10,200  Level New York TRACON
Sat 01:54:24 PM 41.3833 -73.4500 43° Northeast 308 354 10,200 -115 Level New York TRACON
Sat 01:55:08 PM 41.4231 -73.3950 46° Northeast 311 358 10,000 -130 Descending Boston Center
Sat 01:55:56 PM 41.4694 -73.3294 47° Northeast 310 357 10,000  Level Boston Center
Sat 01:56:51 PM 41.5242 -73.2581 44° Northeast 311 358 10,000  Level Boston Center
Sat 01:57:51 PM 41.5853 -73.1756 45° Northeast 312 359 10,000 -248 Level Boston Center
Sat 01:58:52 PM 41.6461 -73.0792 50° Northeast 314 361 9,500 -1,180 Descending Boston Center
Sat 01:59:53 PM 41.6925 -72.9822 57° Northeast 311 358 7,600 -1,869 Descending Boston Center
Sat 02:00:54 PM 41.7347 -72.8908 58° Northeast 280 322 5,700 -1,140 Descending Boston Center
Sat 02:01:54 PM 41.7725 -72.8131 57° Northeast 245 282 5,300 -1,240 Descending Boston Center
Sat 02:02:55 PM 41.8103 -72.7381 56° Northeast 245 282 3,200 -1,475 Descending Boston Center
Sat 02:03:56 PM 41.8375 -72.6714 61° Northeast 209 241 2,300 -793 Descending Boston Center
Sat 02:04:56 PM 41.8750 -72.6325 38° Northeast 173 199 1,600 -793 Descending Boston Center
Sat 02:05:57 PM 41.9083 -72.6578 331° Northwest 125 144 700 -885 Descending Boston Center
Sat 02:07:00 PM 41.9333 -72.6833 45° Northeast  Level FlightAware Approximate

Login

Don't have an account? Register now (free) for customized features, flight alerts, and more!